sensor_id;sensor_type;location;lat;lon;timestamp;temperature;humidity
148;DHT22;142;50.652;12.216;2022-10-16T00:01:35;18.00;60.80
148;DHT22;142;50.652;12.216;2022-10-16T00:04:03;18.00;60.90
148;DHT22;142;50.652;12.216;2022-10-16T00:06:32;18.20;60.80
148;DHT22;142;50.652;12.216;2022-10-16T00:08:59;18.20;60.80
148;DHT22;142;50.652;12.216;2022-10-16T00:11:29;18.20;60.80
148;DHT22;142;50.652;12.216;2022-10-16T00:14:01;18.20;60.70
148;DHT22;142;50.652;12.216;2022-10-16T00:16:29;18.20;60.60
148;DHT22;142;50.652;12.216;2022-10-16T00:21:29;18.20;60.70
148;DHT22;142;50.652;12.216;2022-10-16T00:23:59;18.20;60.70
148;DHT22;142;50.652;12.216;2022-10-16T00:28:56;18.10;60.70
148;DHT22;142;50.652;12.216;2022-10-16T00:31:27;18.20;60.70
148;DHT22;142;50.652;12.216;2022-10-16T00:36:26;18.20;60.70
148;DHT22;142;50.652;12.216;2022-10-16T00:38:55;18.30;60.70
148;DHT22;142;50.652;12.216;2022-10-16T00:41:26;18.20;60.50
148;DHT22;142;50.652;12.216;2022-10-16T00:43:56;18.20;60.50
148;DHT22;142;50.652;12.216;2022-10-16T00:46:27;18.20;60.60
148;DHT22;142;50.652;12.216;2022-10-16T00:48:59;18.10;60.40
148;DHT22;142;50.652;12.216;2022-10-16T00:51:30;18.00;60.80
148;DHT22;142;50.652;12.216;2022-10-16T00:53:59;18.00;60.90
148;DHT22;142;50.652;12.216;2022-10-16T00:56:26;17.90;60.80
148;DHT22;142;50.652;12.216;2022-10-16T00:58:53;17.90;61.30
148;DHT22;142;50.652;12.216;2022-10-16T01:01:21;17.90;61.20
148;DHT22;142;50.652;12.216;2022-10-16T01:03:49;17.80;61.00
148;DHT22;142;50.652;12.216;2022-10-16T01:09:12;17.80;61.20
148;DHT22;142;50.652;12.216;2022-10-16T01:11:46;17.70;61.20
148;DHT22;142;50.652;12.216;2022-10-16T01:16:53;17.60;61.60
148;DHT22;142;50.652;12.216;2022-10-16T01:21:57;17.60;61.60
148;DHT22;142;50.652;12.216;2022-10-16T01:24:33;17.60;61.70
148;DHT22;142;50.652;12.216;2022-10-16T01:27:11;17.70;61.80
148;DHT22;142;50.652;12.216;2022-10-16T01:29:45;17.70;61.80
148;DHT22;142;50.652;12.216;2022-10-16T01:32:17;17.60;61.60
148;DHT22;142;50.652;12.216;2022-10-16T01:34:52;17.60;62.10
148;DHT22;142;50.652;12.216;2022-10-16T01:37:29;17.60;62.10
148;DHT22;142;50.652;12.216;2022-10-16T01:40:00;17.70;62.40
148;DHT22;142;50.652;12.216;2022-10-16T01:42:34;17.70;62.10
148;DHT22;142;50.652;12.216;2022-10-16T01:45:02;17.70;62.00
148;DHT22;142;50.652;12.216;2022-10-16T01:47:32;17.70;62.10
148;DHT22;142;50.652;12.216;2022-10-16T01:52:32;17.70;61.90
148;DHT22;142;50.652;12.216;2022-10-16T01:57:34;17.80;61.60
148;DHT22;142;50.652;12.216;2022-10-16T02:00:07;17.70;61.60
148;DHT22;142;50.652;12.216;2022-10-16T02:02:36;17.70;61.60
148;DHT22;142;50.652;12.216;2022-10-16T02:05:10;17.70;61.60
148;DHT22;142;50.652;12.216;2022-10-16T02:07:39;17.70;61.40
148;DHT22;142;50.652;12.216;2022-10-16T02:10:08;17.70;61.40
148;DHT22;142;50.652;12.216;2022-10-16T02:12:38;17.60;61.60
148;DHT22;142;50.652;12.216;2022-10-16T02:15:08;17.60;61.60
148;DHT22;142;50.652;12.216;2022-10-16T02:17:35;17.60;61.80
148;DHT22;142;50.652;12.216;2022-10-16T02:20:03;17.60;61.90
148;DHT22;142;50.652;12.216;2022-10-16T02:22:34;17.60;61.70
148;DHT22;142;50.652;12.216;2022-10-16T02:25:06;17.60;61.90
148;DHT22;142;50.652;12.216;2022-10-16T02:27:41;17.60;61.90
148;DHT22;142;50.652;12.216;2022-10-16T02:30:17;17.50;61.80
148;DHT22;142;50.652;12.216;2022-10-16T02:32:48;17.50;61.80
148;DHT22;142;50.652;12.216;2022-10-16T02:35:17;17.50;61.90
148;DHT22;142;50.652;12.216;2022-10-16T02:37:46;17.50;62.00
148;DHT22;142;50.652;12.216;2022-10-16T02:40:14;17.40;62.10
148;DHT22;142;50.652;12.216;2022-10-16T02:42:43;17.40;62.30
148;DHT22;142;50.652;12.216;2022-10-16T02:45:11;17.40;62.30
148;DHT22;142;50.652;12.216;2022-10-16T02:47:38;17.40;62.50
148;DHT22;142;50.652;12.216;2022-10-16T02:50:06;17.40;62.50
148;DHT22;142;50.652;12.216;2022-10-16T02:52:33;17.50;62.60
148;DHT22;142;50.652;12.216;2022-10-16T02:55:00;17.40;62.40
148;DHT22;142;50.652;12.216;2022-10-16T02:57:27;17.40;62.40
148;DHT22;142;50.652;12.216;2022-10-16T02:59:56;17.40;62.30
148;DHT22;142;50.652;12.216;2022-10-16T03:02:23;17.30;62.50
148;DHT22;142;50.652;12.216;2022-10-16T03:04:50;17.30;62.70
148;DHT22;142;50.652;12.216;2022-10-16T03:07:17;17.30;62.70
148;DHT22;142;50.652;12.216;2022-10-16T03:09:44;17.40;62.90
148;DHT22;142;50.652;12.216;2022-10-16T03:12:12;17.40;62.70
148;DHT22;142;50.652;12.216;2022-10-16T03:14:38;17.40;62.80
148;DHT22;142;50.652;12.216;2022-10-16T03:17:07;17.40;62.50
148;DHT22;142;50.652;12.216;2022-10-16T03:19:34;17.40;62.40
148;DHT22;142;50.652;12.216;2022-10-16T03:22:01;17.50;62.20
148;DHT22;142;50.652;12.216;2022-10-16T03:24:28;17.50;62.30
148;DHT22;142;50.652;12.216;2022-10-16T03:26:56;17.60;62.30
148;DHT22;142;50.652;12.216;2022-10-16T03:29:23;17.60;62.00
148;DHT22;142;50.652;12.216;2022-10-16T03:31:51;17.60;61.60
148;DHT22;142;50.652;12.216;2022-10-16T03:34:19;17.60;61.60
148;DHT22;142;50.652;12.216;2022-10-16T03:36:46;17.60;61.40
148;DHT22;142;50.652;12.216;2022-10-16T03:39:13;17.60;61.20
148;DHT22;142;50.652;12.216;2022-10-16T03:41:40;17.60;61.20
148;DHT22;142;50.652;12.216;2022-10-16T03:44:08;17.60;61.20
148;DHT22;142;50.652;12.216;2022-10-16T03:46:36;17.50;61.30
148;DHT22;142;50.652;12.216;2022-10-16T03:49:03;17.50;61.40
148;DHT22;142;50.652;12.216;2022-10-16T03:51:31;17.60;61.60
148;DHT22;142;50.652;12.216;2022-10-16T03:53:58;17.50;61.30
148;DHT22;142;50.652;12.216;2022-10-16T03:56:25;17.50;61.70
148;DHT22;142;50.652;12.216;2022-10-16T03:58:52;17.50;61.70
148;DHT22;142;50.652;12.216;2022-10-16T04:01:19;17.50;61.70
148;DHT22;142;50.652;12.216;2022-10-16T04:03:46;17.50;61.90
148;DHT22;142;50.652;12.216;2022-10-16T04:06:13;17.50;61.70
148;DHT22;142;50.652;12.216;2022-10-16T04:08:43;17.40;61.90
148;DHT22;142;50.652;12.216;2022-10-16T04:11:11;17.40;62.10
148;DHT22;142;50.652;12.216;2022-10-16T04:13:38;17.40;62.40
148;DHT22;142;50.652;12.216;2022-10-16T04:16:05;17.50;62.50
148;DHT22;142;50.652;12.216;2022-10-16T04:18:33;17.40;62.30
148;DHT22;142;50.652;12.216;2022-10-16T04:21:03;17.40;62.40
148;DHT22;142;50.652;12.216;2022-10-16T04:23:30;17.40;62.60
148;DHT22;142;50.652;12.216;2022-10-16T04:25:58;17.40;62.50
148;DHT22;142;50.652;12.216;2022-10-16T04:30:54;17.40;62.50
148;DHT22;142;50.652;12.216;2022-10-16T04:33:21;17.40;62.60
148;DHT22;142;50.652;12.216;2022-10-16T04:35:55;17.30;62.60
148;DHT22;142;50.652;12.216;2022-10-16T04:38:27;17.30;62.90
148;DHT22;142;50.652;12.216;2022-10-16T04:40:54;17.40;62.90
148;DHT22;142;50.652;12.216;2022-10-16T04:43:23;17.30;62.80
148;DHT22;142;50.652;12.216;2022-10-16T04:45:51;17.30;62.80
148;DHT22;142;50.652;12.216;2022-10-16T04:50:48;17.20;62.70
148;DHT22;142;50.652;12.216;2022-10-16T04:53:16;17.10;63.20
148;DHT22;142;50.652;12.216;2022-10-16T04:55:43;17.10;63.20
148;DHT22;142;50.652;12.216;2022-10-16T04:58:10;17.10;63.30
148;DHT22;142;50.652;12.216;2022-10-16T05:00:38;17.10;63.50
148;DHT22;142;50.652;12.216;2022-10-16T05:03:05;17.10;63.40
148;DHT22;142;50.652;12.216;2022-10-16T05:05:34;17.00;63.20
148;DHT22;142;50.652;12.216;2022-10-16T05:08:02;17.00;63.50
148;DHT22;142;50.652;12.216;2022-10-16T05:10:29;17.00;63.40
148;DHT22;142;50.652;12.216;2022-10-16T05:12:57;17.00;63.60
148;DHT22;142;50.652;12.216;2022-10-16T05:15:24;17.00;63.80
148;DHT22;142;50.652;12.216;2022-10-16T05:17:56;16.90;63.80
148;DHT22;142;50.652;12.216;2022-10-16T05:20:24;16.90;64.00
148;DHT22;142;50.652;12.216;2022-10-16T05:22:51;16.90;64.10
148;DHT22;142;50.652;12.216;2022-10-16T05:25:18;16.90;64.10
148;DHT22;142;50.652;12.216;2022-10-16T05:27:47;16.90;64.20
148;DHT22;142;50.652;12.216;2022-10-16T05:30:14;16.80;64.30
148;DHT22;142;50.652;12.216;2022-10-16T05:32:41;16.90;64.30
148;DHT22;142;50.652;12.216;2022-10-16T05:35:10;16.80;64.10
148;DHT22;142;50.652;12.216;2022-10-16T05:40:06;17.00;64.30
148;DHT22;142;50.652;12.216;2022-10-16T05:42:33;16.90;64.30
148;DHT22;142;50.652;12.216;2022-10-16T05:45:00;17.00;64.20
148;DHT22;142;50.652;12.216;2022-10-16T05:47:27;16.90;64.30
148;DHT22;142;50.652;12.216;2022-10-16T05:49:56;17.00;64.00
148;DHT22;142;50.652;12.216;2022-10-16T05:52:24;17.00;63.90
148;DHT22;142;50.652;12.216;2022-10-16T05:54:54;17.00;64.10
148;DHT22;142;50.652;12.216;2022-10-16T05:57:21;16.90;64.10
148;DHT22;142;50.652;12.216;2022-10-16T05:59:51;17.00;64.00
148;DHT22;142;50.652;12.216;2022-10-16T06:02:17;17.00;64.00
148;DHT22;142;50.652;12.216;2022-10-16T06:04:44;16.90;63.70
148;DHT22;142;50.652;12.216;2022-10-16T06:07:11;16.90;64.00
148;DHT22;142;50.652;12.216;2022-10-16T06:09:40;16.90;63.80
148;DHT22;142;50.652;12.216;2022-10-16T06:12:07;16.90;64.10
148;DHT22;142;50.652;12.216;2022-10-16T06:14:34;16.90;64.10
148;DHT22;142;50.652;12.216;2022-10-16T06:17:01;16.90;64.60
148;DHT22;142;50.652;12.216;2022-10-16T06:19:28;16.90;64.40
148;DHT22;142;50.652;12.216;2022-10-16T06:21:55;17.00;64.90
148;DHT22;142;50.652;12.216;2022-10-16T06:24:25;17.20;64.80
148;DHT22;142;50.652;12.216;2022-10-16T06:26:54;17.20;64.80
148;DHT22;142;50.652;12.216;2022-10-16T06:29:21;17.20;64.70
148;DHT22;142;50.652;12.216;2022-10-16T06:31:48;17.30;64.50
148;DHT22;142;50.652;12.216;2022-10-16T06:36:42;17.40;63.90
148;DHT22;142;50.652;12.216;2022-10-16T06:39:10;17.30;63.90
148;DHT22;142;50.652;12.216;2022-10-16T06:41:37;17.30;64.00
148;DHT22;142;50.652;12.216;2022-10-16T06:44:09;17.40;64.10
148;DHT22;142;50.652;12.216;2022-10-16T06:46:35;17.40;64.10
148;DHT22;142;50.652;12.216;2022-10-16T06:49:04;17.50;63.90
148;DHT22;142;50.652;12.216;2022-10-16T06:51:31;17.50;63.70
148;DHT22;142;50.652;12.216;2022-10-16T06:54:00;17.50;63.80
148;DHT22;142;50.652;12.216;2022-10-16T06:56:32;17.70;63.50
148;DHT22;142;50.652;12.216;2022-10-16T06:58:59;17.70;63.50
148;DHT22;142;50.652;12.216;2022-10-16T07:01:28;17.70;63.60
148;DHT22;142;50.652;12.216;2022-10-16T07:03:56;17.80;63.80
148;DHT22;142;50.652;12.216;2022-10-16T07:06:24;17.90;63.60
148;DHT22;142;50.652;12.216;2022-10-16T07:11:22;18.10;62.80
148;DHT22;142;50.652;12.216;2022-10-16T07:13:49;18.20;62.80
148;DHT22;142;50.652;12.216;2022-10-16T07:16:18;18.20;62.80
148;DHT22;142;50.652;12.216;2022-10-16T07:18:47;18.30;62.00
148;DHT22;142;50.652;12.216;2022-10-16T07:21:16;18.30;61.70
148;DHT22;142;50.652;12.216;2022-10-16T07:23:45;18.40;61.80
148;DHT22;142;50.652;12.216;2022-10-16T07:26:12;18.50;61.60
148;DHT22;142;50.652;12.216;2022-10-16T07:31:09;18.70;61.20
148;DHT22;142;50.652;12.216;2022-10-16T07:33:39;18.70;61.00
148;DHT22;142;50.652;12.216;2022-10-16T07:41:10;19.00;60.60
148;DHT22;142;50.652;12.216;2022-10-16T07:46:07;19.10;59.20
148;DHT22;142;50.652;12.216;2022-10-16T07:51:04;19.20;59.10
148;DHT22;142;50.652;12.216;2022-10-16T07:53:35;19.30;58.40
148;DHT22;142;50.652;12.216;2022-10-16T07:56:04;19.30;58.40
148;DHT22;142;50.652;12.216;2022-10-16T07:58:32;19.30;58.20
148;DHT22;142;50.652;12.216;2022-10-16T08:01:04;19.40;58.40
148;DHT22;142;50.652;12.216;2022-10-16T08:03:32;19.60;58.00
148;DHT22;142;50.652;12.216;2022-10-16T08:08:27;19.70;57.40
148;DHT22;142;50.652;12.216;2022-10-16T08:10:56;19.50;57.10
148;DHT22;142;50.652;12.216;2022-10-16T08:13:23;19.50;57.40
148;DHT22;142;50.652;12.216;2022-10-16T08:15:53;19.50;57.30
148;DHT22;142;50.652;12.216;2022-10-16T08:18:21;19.50;57.30
148;DHT22;142;50.652;12.216;2022-10-16T08:20:54;19.60;57.20
148;DHT22;142;50.652;12.216;2022-10-16T08:23:21;19.60;57.40
148;DHT22;142;50.652;12.216;2022-10-16T08:25:48;19.60;56.80
148;DHT22;142;50.652;12.216;2022-10-16T08:28:17;19.60;57.10
148;DHT22;142;50.652;12.216;2022-10-16T08:30:44;19.60;57.20
148;DHT22;142;50.652;12.216;2022-10-16T08:33:11;19.70;57.00
148;DHT22;142;50.652;12.216;2022-10-16T08:35:38;19.70;56.60
148;DHT22;142;50.652;12.216;2022-10-16T08:38:06;19.60;56.90
148;DHT22;142;50.652;12.216;2022-10-16T08:40:36;19.60;56.80
148;DHT22;142;50.652;12.216;2022-10-16T08:43:18;19.60;56.50
148;DHT22;142;50.652;12.216;2022-10-16T08:46:06;19.70;56.90
148;DHT22;142;50.652;12.216;2022-10-16T08:48:42;19.80;57.00
148;DHT22;142;50.652;12.216;2022-10-16T08:53:44;20.00;56.10
148;DHT22;142;50.652;12.216;2022-10-16T08:56:13;20.10;55.90
148;DHT22;142;50.652;12.216;2022-10-16T08:58:48;20.10;55.50
148;DHT22;142;50.652;12.216;2022-10-16T09:01:19;20.10;55.10
148;DHT22;142;50.652;12.216;2022-10-16T09:04:07;20.10;55.20
148;DHT22;142;50.652;12.216;2022-10-16T09:09:41;20.30;54.60
148;DHT22;142;50.652;12.216;2022-10-16T09:12:17;20.30;54.90
148;DHT22;142;50.652;12.216;2022-10-16T09:15:03;20.40;54.30
148;DHT22;142;50.652;12.216;2022-10-16T09:17:41;20.40;54.50
148;DHT22;142;50.652;12.216;2022-10-16T09:20:28;20.50;54.30
148;DHT22;142;50.652;12.216;2022-10-16T09:23:12;20.50;54.30
148;DHT22;142;50.652;12.216;2022-10-16T09:25:44;20.60;54.30
148;DHT22;142;50.652;12.216;2022-10-16T09:28:13;20.60;54.10
148;DHT22;142;50.652;12.216;2022-10-16T09:30:42;20.60;53.70
148;DHT22;142;50.652;12.216;2022-10-16T09:33:10;20.60;53.80
148;DHT22;142;50.652;12.216;2022-10-16T09:35:40;20.60;53.90
148;DHT22;142;50.652;12.216;2022-10-16T09:38:09;20.50;
148;DHT22;142;50.652;12.216;2022-10-16T09:40:47;20.60;53.90
148;DHT22;142;50.652;12.216;2022-10-16T09:43:20;20.70;53.80
148;DHT22;142;50.652;12.216;2022-10-16T09:46:00;20.80;53.10
148;DHT22;142;50.652;12.216;2022-10-16T09:51:01;21.00;53.00
148;DHT22;142;50.652;12.216;2022-10-16T09:53:40;20.90;52.70
148;DHT22;142;50.652;12.216;2022-10-16T09:56:10;20.90;53.00
148;DHT22;142;50.652;12.216;2022-10-16T09:58:42;21.00;53.30
148;DHT22;142;50.652;12.216;2022-10-16T10:01:14;21.00;52.50
148;DHT22;142;50.652;12.216;2022-10-16T10:03:42;20.90;52.20
148;DHT22;142;50.652;12.216;2022-10-16T10:06:21;20.90;52.40
148;DHT22;142;50.652;12.216;2022-10-16T10:09:02;20.80;52.60
148;DHT22;142;50.652;12.216;2022-10-16T10:11:38;20.90;52.80
148;DHT22;142;50.652;12.216;2022-10-16T10:14:05;21.00;52.70
148;DHT22;142;50.652;12.216;2022-10-16T10:16:34;20.90;52.60
148;DHT22;142;50.652;12.216;2022-10-16T10:19:01;20.90;53.00
148;DHT22;142;50.652;12.216;2022-10-16T10:21:28;21.10;52.90
148;DHT22;142;50.652;12.216;2022-10-16T10:23:56;21.20;52.20
148;DHT22;142;50.652;12.216;2022-10-16T10:26:27;21.30;51.90
148;DHT22;142;50.652;12.216;2022-10-16T10:29:01;21.40;51.90
148;DHT22;142;50.652;12.216;2022-10-16T10:31:38;21.50;51.00
148;DHT22;142;50.652;12.216;2022-10-16T10:34:19;21.70;51.00
148;DHT22;142;50.652;12.216;2022-10-16T10:36:53;21.60;50.70
148;DHT22;142;50.652;12.216;2022-10-16T10:39:27;21.60;51.10
148;DHT22;142;50.652;12.216;2022-10-16T10:42:12;21.70;50.50
148;DHT22;142;50.652;12.216;2022-10-16T10:44:57;21.80;50.30
148;DHT22;142;50.652;12.216;2022-10-16T10:50:14;22.10;50.00
148;DHT22;142;50.652;12.216;2022-10-16T10:52:53;22.10;50.10
148;DHT22;142;50.652;12.216;2022-10-16T10:58:23;22.30;49.30
148;DHT22;142;50.652;12.216;2022-10-16T11:00:59;22.10;49.30
148;DHT22;142;50.652;12.216;2022-10-16T11:06:31;22.20;48.90
148;DHT22;142;50.652;12.216;2022-10-16T11:09:02;22.10;48.60
148;DHT22;142;50.652;12.216;2022-10-16T11:11:38;22.00;48.70
148;DHT22;142;50.652;12.216;2022-10-16T11:16:44;22.20;48.50
148;DHT22;142;50.652;12.216;2022-10-16T11:19:22;21.90;48.60
148;DHT22;142;50.652;12.216;2022-10-16T11:24:34;22.20;48.40
148;DHT22;142;50.652;12.216;2022-10-16T11:27:07;22.30;48.00
148;DHT22;142;50.652;12.216;2022-10-16T11:29:35;22.30;47.80
148;DHT22;142;50.652;12.216;2022-10-16T11:32:19;22.20;47.80
148;DHT22;142;50.652;12.216;2022-10-16T11:34:52;22.40;47.80
148;DHT22;142;50.652;12.216;2022-10-16T11:37:23;22.30;47.70
148;DHT22;142;50.652;12.216;2022-10-16T11:39:54;22.20;47.90
148;DHT22;142;50.652;12.216;2022-10-16T11:42:29;22.30;47.90
148;DHT22;142;50.652;12.216;2022-10-16T11:45:03;22.20;47.80
148;DHT22;142;50.652;12.216;2022-10-16T11:47:34;22.20;47.80
148;DHT22;142;50.652;12.216;2022-10-16T11:50:09;22.20;47.90
148;DHT22;142;50.652;12.216;2022-10-16T11:52:46;22.20;48.00
148;DHT22;142;50.652;12.216;2022-10-16T11:55:18;22.30;48.00
148;DHT22;142;50.652;12.216;2022-10-16T11:57:49;22.40;47.70
148;DHT22;142;50.652;12.216;2022-10-16T12:00:23;22.30;48.20
148;DHT22;142;50.652;12.216;2022-10-16T12:02:58;22.30;48.20
148;DHT22;142;50.652;12.216;2022-10-16T12:05:35;22.30;48.10
148;DHT22;142;50.652;12.216;2022-10-16T12:08:09;22.20;48.50
148;DHT22;142;50.652;12.216;2022-10-16T12:10:38;22.20;48.60
148;DHT22;142;50.652;12.216;2022-10-16T12:13:27;22.10;48.80
148;DHT22;142;50.652;12.216;2022-10-16T12:16:04;22.20;49.10
148;DHT22;142;50.652;12.216;2022-10-16T12:18:31;22.40;49.00
148;DHT22;142;50.652;12.216;2022-10-16T12:21:00;22.50;49.00
148;DHT22;142;50.652;12.216;2022-10-16T12:23:32;22.30;49.10
148;DHT22;142;50.652;12.216;2022-10-16T12:26:00;22.20;50.10
148;DHT22;142;50.652;12.216;2022-10-16T12:28:29;22.00;51.10
148;DHT22;142;50.652;12.216;2022-10-16T12:30:58;22.00;51.80
148;DHT22;142;50.652;12.216;2022-10-16T12:33:28;21.90;51.10
148;DHT22;142;50.652;12.216;2022-10-16T12:35:56;21.90;51.70
148;DHT22;142;50.652;12.216;2022-10-16T12:40:59;22.00;52.60
148;DHT22;142;50.652;12.216;2022-10-16T12:43:40;22.00;52.80
148;DHT22;142;50.652;12.216;2022-10-16T12:46:36;22.10;52.80
148;DHT22;142;50.652;12.216;2022-10-16T12:49:30;22.30;52.10
148;DHT22;142;50.652;12.216;2022-10-16T12:51:58;22.30;51.80
148;DHT22;142;50.652;12.216;2022-10-16T13:07:56;22.80;50.90
148;DHT22;142;50.652;12.216;2022-10-16T13:10:34;22.70;50.90
148;DHT22;142;50.652;12.216;2022-10-16T13:13:37;22.70;51.30
148;DHT22;142;50.652;12.216;2022-10-16T13:16:13;22.80;50.80
148;DHT22;142;50.652;12.216;2022-10-16T13:18:54;22.60;51.00
148;DHT22;142;50.652;12.216;2022-10-16T13:21:32;22.30;51.50
148;DHT22;142;50.652;12.216;2022-10-16T13:24:08;22.30;52.00
148;DHT22;142;50.652;12.216;2022-10-16T13:26:44;22.30;51.90
148;DHT22;142;50.652;12.216;2022-10-16T13:29:12;22.10;52.10
148;DHT22;142;50.652;12.216;2022-10-16T13:34:14;22.10;52.10
148;DHT22;142;50.652;12.216;2022-10-16T13:36:46;22.00;52.70
148;DHT22;142;50.652;12.216;2022-10-16T13:39:21;22.00;52.10
148;DHT22;142;50.652;12.216;2022-10-16T13:42:02;21.80;52.60
148;DHT22;142;50.652;12.216;2022-10-16T13:44:34;21.80;52.80
148;DHT22;142;50.652;12.216;2022-10-16T13:47:02;21.70;53.10
148;DHT22;142;50.652;12.216;2022-10-16T13:51:59;22.00;52.80
148;DHT22;142;50.652;12.216;2022-10-16T13:54:27;21.90;52.80
148;DHT22;142;50.652;12.216;2022-10-16T13:56:55;21.90;53.00
148;DHT22;142;50.652;12.216;2022-10-16T13:59:38;21.90;52.80
148;DHT22;142;50.652;12.216;2022-10-16T14:02:14;21.80;52.40
148;DHT22;142;50.652;12.216;2022-10-16T14:07:13;21.70;52.50
148;DHT22;142;50.652;12.216;2022-10-16T14:09:41;21.60;52.20
148;DHT22;142;50.652;12.216;2022-10-16T14:12:10;21.50;52.20
148;DHT22;142;50.652;12.216;2022-10-16T14:14:43;21.40;52.50
148;DHT22;142;50.652;12.216;2022-10-16T14:17:14;21.50;52.40
148;DHT22;142;50.652;12.216;2022-10-16T14:19:46;21.40;52.30
148;DHT22;142;50.652;12.216;2022-10-16T14:22:26;21.50;52.70
148;DHT22;142;50.652;12.216;2022-10-16T14:24:55;21.40;52.60
148;DHT22;142;50.652;12.216;2022-10-16T14:27:31;21.40;52.80
148;DHT22;142;50.652;12.216;2022-10-16T14:32:57;21.40;53.00
148;DHT22;142;50.652;12.216;2022-10-16T14:35:27;21.40;53.50
148;DHT22;142;50.652;12.216;2022-10-16T14:37:56;21.30;53.70
148;DHT22;142;50.652;12.216;2022-10-16T14:40:26;21.20;54.20
148;DHT22;142;50.652;12.216;2022-10-16T14:42:53;21.20;54.50
148;DHT22;142;50.652;12.216;2022-10-16T14:45:24;21.30;54.30
148;DHT22;142;50.652;12.216;2022-10-16T14:47:55;21.30;54.30
148;DHT22;142;50.652;12.216;2022-10-16T14:50:23;21.30;54.40
148;DHT22;142;50.652;12.216;2022-10-16T14:52:50;21.30;54.30
148;DHT22;142;50.652;12.216;2022-10-16T14:55:17;21.40;54.30
148;DHT22;142;50.652;12.216;2022-10-16T15:00:19;21.40;54.10
148;DHT22;142;50.652;12.216;2022-10-16T15:02:49;21.40;54.40
148;DHT22;142;50.652;12.216;2022-10-16T15:05:19;21.40;54.50
148;DHT22;142;50.652;12.216;2022-10-16T15:07:46;21.50;54.20
148;DHT22;142;50.652;12.216;2022-10-16T15:10:15;21.40;54.20
148;DHT22;142;50.652;12.216;2022-10-16T15:12:42;21.40;53.90
148;DHT22;142;50.652;12.216;2022-10-16T15:15:25;21.30;53.90
148;DHT22;142;50.652;12.216;2022-10-16T15:20:27;21.20;53.90
148;DHT22;142;50.652;12.216;2022-10-16T15:22:54;21.10;54.20
148;DHT22;142;50.652;12.216;2022-10-16T15:28:03;21.10;54.30
148;DHT22;142;50.652;12.216;2022-10-16T15:30:31;21.00;54.70
148;DHT22;142;50.652;12.216;2022-10-16T15:35:27;20.80;55.40
148;DHT22;142;50.652;12.216;2022-10-16T15:37:55;20.70;55.60
148;DHT22;142;50.652;12.216;2022-10-16T15:40:22;20.60;55.90
148;DHT22;142;50.652;12.216;2022-10-16T15:45:18;20.50;56.50
148;DHT22;142;50.652;12.216;2022-10-16T15:47:45;20.30;56.90
148;DHT22;142;50.652;12.216;2022-10-16T15:52:43;20.20;57.60
148;DHT22;142;50.652;12.216;2022-10-16T15:55:12;20.10;57.90
148;DHT22;142;50.652;12.216;2022-10-16T15:57:40;20.00;58.30
148;DHT22;142;50.652;12.216;2022-10-16T16:00:11;19.90;58.50
148;DHT22;142;50.652;12.216;2022-10-16T16:02:38;19.70;58.90
148;DHT22;142;50.652;12.216;2022-10-16T16:05:07;19.70;59.40
148;DHT22;142;50.652;12.216;2022-10-16T16:07:37;19.70;59.50
148;DHT22;142;50.652;12.216;2022-10-16T16:10:07;19.60;59.50
148;DHT22;142;50.652;12.216;2022-10-16T16:12:34;19.50;59.70
148;DHT22;142;50.652;12.216;2022-10-16T16:15:05;19.40;60.20
148;DHT22;142;50.652;12.216;2022-10-16T16:17:32;19.50;60.20
148;DHT22;142;50.652;12.216;2022-10-16T16:20:00;19.30;60.40
148;DHT22;142;50.652;12.216;2022-10-16T16:22:27;19.30;60.70
148;DHT22;142;50.652;12.216;2022-10-16T16:24:56;19.40;60.80
148;DHT22;142;50.652;12.216;2022-10-16T16:27:23;19.40;60.70
148;DHT22;142;50.652;12.216;2022-10-16T16:29:50;19.40;60.50
148;DHT22;142;50.652;12.216;2022-10-16T16:32:17;19.30;60.10
148;DHT22;142;50.652;12.216;2022-10-16T16:34:44;19.40;60.20
148;DHT22;142;50.652;12.216;2022-10-16T16:37:11;19.20;60.20
148;DHT22;142;50.652;12.216;2022-10-16T16:42:07;19.10;60.60
148;DHT22;142;50.652;12.216;2022-10-16T16:44:35;19.00;60.70
148;DHT22;142;50.652;12.216;2022-10-16T16:47:03;18.90;60.80
148;DHT22;142;50.652;12.216;2022-10-16T16:51:59;18.80;61.00
148;DHT22;142;50.652;12.216;2022-10-16T16:54:26;18.70;61.20
148;DHT22;142;50.652;12.216;2022-10-16T16:56:53;18.70;61.30
148;DHT22;142;50.652;12.216;2022-10-16T16:59:22;18.60;61.70
148;DHT22;142;50.652;12.216;2022-10-16T17:01:49;18.60;62.00
148;DHT22;142;50.652;12.216;2022-10-16T17:04:17;18.50;62.20
148;DHT22;142;50.652;12.216;2022-10-16T17:06:45;18.50;62.40
148;DHT22;142;50.652;12.216;2022-10-16T17:09:12;18.50;62.40
148;DHT22;142;50.652;12.216;2022-10-16T17:11:41;18.40;62.40
148;DHT22;142;50.652;12.216;2022-10-16T17:14:10;18.40;62.50
148;DHT22;142;50.652;12.216;2022-10-16T17:16:39;18.30;62.60
148;DHT22;142;50.652;12.216;2022-10-16T17:19:12;18.20;62.70
148;DHT22;142;50.652;12.216;2022-10-16T17:21:42;18.20;62.80
148;DHT22;142;50.652;12.216;2022-10-16T17:24:09;18.10;62.90
148;DHT22;142;50.652;12.216;2022-10-16T17:29:10;18.00;63.30
148;DHT22;142;50.652;12.216;2022-10-16T17:31:40;18.00;63.50
148;DHT22;142;50.652;12.216;2022-10-16T17:36:37;18.00;63.80
148;DHT22;142;50.652;12.216;2022-10-16T17:41:37;18.10;63.80
148;DHT22;142;50.652;12.216;2022-10-16T17:44:05;18.00;63.70
148;DHT22;142;50.652;12.216;2022-10-16T17:49:06;18.00;63.90
148;DHT22;142;50.652;12.216;2022-10-16T17:51:33;18.00;63.90
148;DHT22;142;50.652;12.216;2022-10-16T17:56:33;18.00;64.20
148;DHT22;142;50.652;12.216;2022-10-16T17:59:01;18.00;64.10
148;DHT22;142;50.652;12.216;2022-10-16T18:01:30;18.00;64.10
148;DHT22;142;50.652;12.216;2022-10-16T18:04:01;18.00;64.20
148;DHT22;142;50.652;12.216;2022-10-16T18:09:00;18.10;63.90
148;DHT22;142;50.652;12.216;2022-10-16T18:11:28;18.00;63.80
148;DHT22;142;50.652;12.216;2022-10-16T18:13:58;18.00;64.00
148;DHT22;142;50.652;12.216;2022-10-16T18:16:27;18.00;64.00
148;DHT22;142;50.652;12.216;2022-10-16T18:23:56;18.00;64.00
148;DHT22;142;50.652;12.216;2022-10-16T18:26:24;18.00;63.80
148;DHT22;142;50.652;12.216;2022-10-16T18:28:53;18.00;63.90
148;DHT22;142;50.652;12.216;2022-10-16T18:33:52;17.90;63.30
148;DHT22;142;50.652;12.216;2022-10-16T18:36:22;17.80;64.10
148;DHT22;142;50.652;12.216;2022-10-16T18:38:50;17.80;64.10
148;DHT22;142;50.652;12.216;2022-10-16T18:43:48;17.90;64.70
148;DHT22;142;50.652;12.216;2022-10-16T18:46:19;17.90;64.70
148;DHT22;142;50.652;12.216;2022-10-16T18:48:47;17.90;64.70
148;DHT22;142;50.652;12.216;2022-10-16T18:51:17;17.90;64.40
148;DHT22;142;50.652;12.216;2022-10-16T18:53:47;17.90;64.40
148;DHT22;142;50.652;12.216;2022-10-16T18:58:47;18.10;64.30
148;DHT22;142;50.652;12.216;2022-10-16T19:01:16;18.00;64.00